Time;durP1;ratioP1;P1;durP2;ratioP2;P2;SDS_P1;SDS_P2;PMS_P1;PMS_P2;Temp;Humidity;BMP_temperature;BMP_pressure;BME280_temperature;BME280_humidity;BME280_pressure;Samples;Min_cycle;Max_cycle;Signal;HPM_P1;HPM_P2
2022/11/23 00:01:52;;;;;;;57.27;30.57;;;1.10;99.90;0.10;99596;;;;567528;251;25161;-78
2022/11/23 00:04:24;;;;;;;55.97;27.83;;;1.10;99.90;0.10;99602;;;;567100;251;24117;-77
2022/11/23 00:06:48;;;;;;;63.63;31.73;;;1.00;99.90;0.20;99593;;;;567135;252;24070;-77
2022/11/23 00:09:17;;;;;;;59.47;29.17;;;1.20;99.90;0.20;99600;;;;568157;251;24105;-78
2022/11/23 00:11:45;;;;;;;62.87;28.80;;;1.10;99.90;0.20;99597;;;;568582;251;24069;-77
2022/11/23 00:14:12;;;;;;;54.83;29.13;;;1.20;99.90;0.20;99596;;;;567945;249;24161;-76
2022/11/23 00:16:40;;;;;;;50.73;28.97;;;1.20;99.90;0.20;99606;;;;568452;251;24135;-77
2022/11/23 00:19:08;;;;;;;52.07;28.53;;;1.20;99.90;0.20;99586;;;;567929;251;24101;-77
2022/11/23 00:21:36;;;;;;;52.67;26.77;;;1.10;99.90;0.10;99596;;;;568186;251;24094;-77
2022/11/23 00:24:07;;;;;;;56.10;28.80;;;1.10;99.90;0.10;99595;;;;567958;251;24158;-79
2022/11/23 00:26:33;;;;;;;54.07;26.80;;;1.10;99.90;0.10;99599;;;;567789;252;24147;-82
2022/11/23 00:29:00;;;;;;;52.97;29.07;;;1.10;99.90;0.10;99603;;;;567330;251;24117;-77
2022/11/23 00:31:28;;;;;;;65.20;29.40;;;1.10;99.90;0.20;99609;;;;567736;251;24140;-78
2022/11/23 00:33:56;;;;;;;51.87;28.57;;;1.10;99.90;0.20;99601;;;;567373;251;24145;-77
2022/11/23 00:36:24;;;;;;;51.13;27.30;;;1.10;99.90;0.10;99608;;;;567758;251;25142;-78
2022/11/23 00:38:56;;;;;;;56.37;28.30;;;1.10;99.90;0.10;99597;;;;567424;251;24134;-82
2022/11/23 00:41:20;;;;;;;51.50;27.13;;;1.10;99.90;0.10;99593;;;;567597;252;25203;-82
2022/11/23 00:43:48;;;;;;;50.13;28.17;;;1.00;99.90;0.10;99590;;;;567389;251;24162;-82
2022/11/23 00:46:22;;;;;;;52.03;27.90;;;1.00;99.90;0.10;99589;;;;567518;251;24126;-79
2022/11/23 00:48:50;;;;;;;51.30;28.23;;;1.10;99.90;0.10;99585;;;;567213;252;24128;-78
2022/11/23 00:51:20;;;;;;;57.53;28.43;;;1.10;99.90;0.10;99584;;;;567470;251;24149;-78
2022/11/23 00:53:51;;;;;;;54.20;26.37;;;1.10;99.90;0.20;99583;;;;567209;251;24113;-78
2022/11/23 00:56:19;;;;;;;57.30;27.87;;;1.10;99.90;0.20;99591;;;;567421;252;25194;-79
2022/11/23 00:58:48;;;;;;;51.77;27.23;;;1.10;99.90;0.10;99589;;;;567225;251;24118;-78
2022/11/23 01:01:15;;;;;;;49.70;27.17;;;1.10;99.90;0.10;99596;;;;567369;252;24164;-78
2022/11/23 01:03:43;;;;;;;52.37;28.60;;;1.10;99.90;0.10;99594;;;;566992;252;24092;-78
2022/11/23 01:06:20;;;;;;;52.57;27.40;;;1.00;99.90;0.00;99592;;;;567482;252;24213;-78
2022/11/23 01:08:57;;;;;;;52.70;28.53;;;1.00;99.90;0.00;99598;;;;566703;252;24133;-78
2022/11/23 01:11:25;;;;;;;49.83;26.10;;;1.00;99.90;0.00;99600;;;;567274;252;24117;-79
2022/11/23 01:13:53;;;;;;;50.17;28.80;;;0.90;99.90;0.00;99609;;;;567025;249;24117;-78
2022/11/23 01:16:24;;;;;;;56.17;28.20;;;0.90;99.90;0.00;99603;;;;567213;251;24125;-79
2022/11/23 01:19:01;;;;;;;50.63;27.27;;;0.90;99.90;0.00;99604;;;;567049;252;24097;-79
2022/11/23 01:21:33;;;;;;;50.80;26.30;;;0.90;99.90;0.00;99592;;;;568426;251;24089;-79
2022/11/23 01:24:00;;;;;;;49.57;27.10;;;0.90;99.90;0.00;99596;;;;568105;251;24089;-80
2022/11/23 01:26:25;;;;;;;50.03;26.27;;;0.90;99.90;0.00;99594;;;;567361;252;24153;-78
2022/11/23 01:28:56;;;;;;;51.17;27.93;;;0.90;99.90;0.00;99603;;;;568183;251;24085;-78
2022/11/23 01:31:20;;;;;;;52.20;28.83;;;0.90;99.90;-0.10;99601;;;;567112;252;24141;-78
2022/11/23 01:33:48;;;;;;;53.77;27.57;;;0.90;99.90;0.00;99597;;;;567393;252;24117;-78
2022/11/23 01:36:17;;;;;;;55.70;28.50;;;0.90;99.90;0.00;99599;;;;567895;253;24120;-79
2022/11/23 01:38:48;;;;;;;55.63;33.28;;;0.90;99.90;0.00;99609;;;;562510;251;35254;-79
2022/11/23 01:41:12;;;;;;;54.73;27.17;;;0.90;99.90;0.00;99604;;;;567321;252;24113;-80
2022/11/23 01:43:40;;;;;;;54.13;27.67;;;0.90;99.90;0.00;99610;;;;567372;253;24161;-77
2022/11/23 01:46:08;;;;;;;54.03;29.53;;;0.90;99.90;-0.10;99608;;;;567478;251;24138;-79
2022/11/23 01:48:44;;;;;;;50.70;27.23;;;0.90;99.90;0.00;99610;;;;567295;251;24136;-79
2022/11/23 01:51:15;;;;;;;55.33;27.57;;;1.00;99.90;0.00;99608;;;;567742;251;24107;-78
2022/11/23 01:53:47;;;;;;;50.73;29.37;;;0.90;99.90;-0.10;99614;;;;567227;252;24112;-80
2022/11/23 01:56:12;;;;;;;58.50;32.70;;;1.00;99.90;0.00;99602;;;;561912;252;46120;-78
2022/11/23 01:58:40;;;;;;;49.07;23.83;;;0.90;99.90;0.00;99602;;;;567207;252;24111;-78
2022/11/23 02:01:08;;;;;;;60.13;29.90;;;1.00;99.90;0.00;99598;;;;567151;252;24137;-78
2022/11/23 02:03:40;;;;;;;61.03;31.13;;;1.00;99.90;0.00;99599;;;;567504;251;24148;-79
2022/11/23 02:06:04;;;;;;;56.20;29.63;;;0.90;99.90;0.00;99596;;;;566624;252;24101;-78
2022/11/23 02:08:36;;;;;;;55.17;30.07;;;0.90;99.90;-0.10;99594;;;;567155;252;24136;-79
2022/11/23 02:11:03;;;;;;;56.63;30.67;;;0.90;99.90;-0.10;99599;;;;566563;252;24085;-78
2022/11/23 02:13:28;;;;;;;57.27;30.77;;;0.90;99.90;-0.10;99598;;;;566748;249;24104;-78
2022/11/23 02:15:55;;;;;;;57.23;30.90;;;0.90;99.90;-0.10;99597;;;;566993;253;24117;-78
2022/11/23 02:18:23;;;;;;;51.63;29.30;;;0.90;99.90;-0.10;99597;;;;567169;250;24092;-79
2022/11/23 02:20:54;;;;;;;56.63;30.03;;;0.90;99.90;0.00;99594;;;;566937;252;24131;-79
2022/11/23 02:23:30;;;;;;;56.17;29.23;;;0.90;99.90;-0.10;99588;;;;567223;252;24204;-79
2022/11/23 02:26:13;;;;;;;56.00;30.03;;;0.90;99.90;-0.10;99596;;;;567134;251;24105;-79
2022/11/23 02:28:44;;;;;;;56.50;30.03;;;0.90;99.90;0.00;99588;;;;566836;252;24090;-80
2022/11/23 02:31:14;;;;;;;58.23;29.90;;;0.90;99.90;0.00;99586;;;;567255;251;24130;-80
2022/11/23 02:33:39;;;;;;;55.53;30.27;;;0.90;99.90;0.00;99585;;;;568060;252;24096;-79
2022/11/23 02:36:40;;;;;;;51.70;28.47;;;1.00;99.90;0.00;99591;;;;568375;252;24093;-79
2022/11/23 02:39:17;;;;;;;54.83;29.77;;;1.00;99.90;0.00;99590;;;;568143;252;24084;-80
2022/11/23 02:41:52;;;;;;;58.73;31.10;;;1.00;99.90;0.00;99591;;;;567609;251;24128;-80
2022/11/23 02:44:27;;;;;;;50.60;27.03;;;1.00;99.90;0.00;99585;;;;567493;252;24155;-80
2022/11/23 02:46:55;;;;;;;51.67;29.47;;;0.90;99.90;-0.10;99588;;;;567572;251;24152;-79
2022/11/23 02:49:23;;;;;;;51.33;28.60;;;0.90;99.90;-0.10;99581;;;;567455;251;24136;-79
2022/11/23 02:51:51;;;;;;;49.53;28.87;;;0.90;99.90;0.00;99590;;;;567266;251;24147;-78
2022/11/23 02:54:19;;;;;;;47.73;26.83;;;0.90;99.90;0.00;99593;;;;567740;251;24104;-79
2022/11/23 02:56:46;;;;;;;55.90;32.97;;;0.90;99.90;0.00;99585;;;;562489;251;35253;-80
2022/11/23 02:59:14;;;;;;;52.17;27.17;;;0.90;99.90;0.00;99586;;;;567819;251;24117;-78
2022/11/23 03:01:42;;;;;;;53.93;30.00;;;0.90;99.90;-0.10;99583;;;;567471;251;24108;-78
2022/11/23 03:04:11;;;;;;;54.37;29.90;;;0.90;99.90;-0.10;99585;;;;567317;251;24160;-78
2022/11/23 03:06:39;;;;;;;47.60;27.23;;;0.90;99.90;-0.10;99587;;;;567255;251;24149;-80
2022/11/23 03:09:07;;;;;;;50.93;26.53;;;0.90;99.90;-0.10;99590;;;;567086;252;24110;-79
2022/11/23 03:11:34;;;;;;;50.97;27.00;;;0.90;99.90;-0.10;99588;;;;567119;252;24139;-79
2022/11/23 03:14:03;;;;;;;58.20;28.63;;;0.90;99.90;-0.10;99575;;;;567098;249;24116;-79
2022/11/23 03:16:32;;;;;;;47.77;27.43;;;0.80;99.90;-0.10;99578;;;;567060;252;24159;-79
2022/11/23 03:19:03;;;;;;;55.70;29.30;;;0.90;99.90;-0.20;99572;;;;567003;253;24112;-79
2022/11/23 03:21:27;;;;;;;54.47;28.97;;;0.80;99.90;-0.20;99576;;;;566639;252;24084;-78
2022/11/23 03:23:59;;;;;;;49.03;27.40;;;0.80;99.90;-0.10;99573;;;;567053;252;24132;-78
2022/11/23 03:26:23;;;;;;;52.37;28.73;;;0.80;99.90;-0.10;99574;;;;566675;253;24132;-80
2022/11/23 03:28:51;;;;;;;48.30;26.03;;;0.80;99.90;-0.10;99566;;;;567120;252;24113;-79
2022/11/23 03:31:19;;;;;;;47.90;26.33;;;0.80;99.90;-0.10;99575;;;;567027;252;24116;-80
2022/11/23 03:33:47;;;;;;;55.73;28.37;;;0.80;99.90;-0.10;99569;;;;566972;252;24116;-79
2022/11/23 03:36:15;;;;;;;47.57;26.10;;;0.80;99.90;-0.20;99572;;;;567049;252;24137;-79
2022/11/23 03:38:43;;;;;;;51.27;28.63;;;0.80;99.90;-0.20;99571;;;;567017;252;24163;-80
2022/11/23 03:41:11;;;;;;;51.43;28.27;;;0.80;99.90;-0.20;99570;;;;567021;252;24096;-79
2022/11/23 03:43:39;;;;;;;52.43;28.53;;;0.80;99.90;-0.20;99562;;;;567908;251;24151;-79
2022/11/23 03:46:08;;;;;;;50.97;27.97;;;0.80;99.90;-0.20;99563;;;;568232;251;24149;-79
2022/11/23 03:48:36;;;;;;;52.07;28.43;;;0.80;99.90;-0.20;99569;;;;567961;251;24093;-80
2022/11/23 03:51:07;;;;;;;52.80;29.30;;;0.80;99.90;-0.20;99564;;;;567929;251;24137;-79
2022/11/23 03:53:34;;;;;;;50.50;28.07;;;0.80;99.90;-0.20;99570;;;;567641;251;24137;-80
2022/11/23 03:56:07;;;;;;;53.80;26.63;;;0.80;99.90;-0.20;99567;;;;568110;252;24145;-80
2022/11/23 03:58:31;;;;;;;49.37;25.80;;;0.80;99.90;-0.20;99569;;;;567733;252;24089;-80
2022/11/23 04:01:02;;;;;;;54.40;28.07;;;0.70;99.90;-0.30;99565;;;;567705;251;24086;-80
2022/11/23 04:03:30;;;;;;;50.40;27.70;;;0.70;99.90;-0.30;99571;;;;567108;252;24101;-79
2022/11/23 04:05:55;;;;;;;45.73;25.37;;;0.70;99.90;-0.30;99568;;;;567475;252;24112;-81
2022/11/23 04:08:22;;;;;;;50.50;26.80;;;0.70;99.90;-0.30;99569;;;;567967;251;24106;-82
2022/11/23 04:10:50;;;;;;;51.00;27.57;;;0.70;99.90;-0.30;99572;;;;567773;251;24133;-79
2022/11/23 04:13:18;;;;;;;47.07;26.17;;;0.70;99.90;-0.30;99566;;;;567699;249;24122;-80
2022/11/23 04:15:46;;;;;;;54.37;27.20;;;0.70;99.90;-0.30;99567;;;;567853;251;24123;-80
2022/11/23 04:18:14;;;;;;;51.07;27.20;;;0.70;99.90;-0.30;99563;;;;567616;251;24111;-79
2022/11/23 04:20:45;;;;;;;52.37;25.37;;;0.70;99.90;-0.30;99565;;;;567391;252;24109;-79
2022/11/23 04:23:13;;;;;;;49.47;27.87;;;0.70;99.90;-0.30;99579;;;;566978;253;24112;-79
2022/11/23 04:25:38;;;;;;;50.73;29.27;;;0.70;99.90;-0.30;99577;;;;567176;253;24143;-79
2022/11/23 04:28:05;;;;;;;55.63;28.17;;;0.70;99.90;-0.20;99582;;;;567521;252;24141;-79
2022/11/23 04:30:33;;;;;;;44.60;25.50;;;0.70;99.90;-0.30;99580;;;;567528;252;24113;-81
2022/11/23 04:33:01;;;;;;;51.00;28.97;;;0.70;99.90;-0.20;99593;;;;567523;252;24094;-80
2022/11/23 04:35:29;;;;;;;51.80;26.60;;;0.80;99.90;-0.20;99594;;;;567481;252;24115;-80
2022/11/23 04:37:57;;;;;;;51.37;26.17;;;0.80;99.90;-0.20;99594;;;;567380;252;24148;-80
2022/11/23 04:40:25;;;;;;;51.17;26.93;;;0.80;99.90;-0.20;99590;;;;567508;252;24137;-80
2022/11/23 04:42:57;;;;;;;48.70;25.77;;;0.80;99.90;-0.10;99586;;;;567427;252;24143;-80
2022/11/23 04:45:21;;;;;;;53.27;28.07;;;0.80;99.90;-0.10;99585;;;;567113;252;24164;-80
2022/11/23 04:47:49;;;;;;;49.47;26.77;;;0.80;99.90;-0.20;99577;;;;567107;252;24158;-79
2022/11/23 04:50:17;;;;;;;48.37;26.47;;;0.80;99.90;-0.20;99574;;;;567114;252;24187;-79
2022/11/23 04:52:45;;;;;;;53.20;27.03;;;0.80;99.90;-0.20;99577;;;;567218;252;24118;-80
2022/11/23 04:55:13;;;;;;;54.23;27.73;;;0.70;99.90;-0.20;99575;;;;568001;251;24108;-80
2022/11/23 04:57:41;;;;;;;49.53;26.70;;;0.80;99.90;-0.20;99583;;;;568685;251;24144;-79
2022/11/23 05:00:12;;;;;;;49.70;24.90;;;0.80;99.90;-0.20;99582;;;;568083;251;24097;-80
2022/11/23 05:02:37;;;;;;;53.00;28.40;;;0.80;99.90;-0.20;99581;;;;567682;252;24122;-80
2022/11/23 05:05:08;;;;;;;48.63;26.53;;;0.80;99.90;-0.20;99576;;;;567655;251;24146;-79
2022/11/23 05:07:33;;;;;;;52.80;27.80;;;0.80;99.90;-0.20;99579;;;;567401;252;24108;-80
2022/11/23 05:10:00;;;;;;;51.30;27.13;;;0.80;99.90;-0.20;99586;;;;567191;252;24097;-80
2022/11/23 05:12:28;;;;;;;51.17;27.83;;;0.80;99.90;-0.20;99594;;;;567505;249;24093;-81
2022/11/23 05:14:56;;;;;;;50.00;26.60;;;0.70;99.90;-0.30;99587;;;;567340;251;24118;-79
2022/11/23 05:17:24;;;;;;;51.67;25.73;;;0.70;99.90;-0.20;99591;;;;567313;251;24099;-79
2022/11/23 05:19:53;;;;;;;54.40;27.00;;;0.70;99.90;-0.20;99584;;;;567339;251;24122;-80
2022/11/23 05:22:24;;;;;;;54.70;28.77;;;0.70;99.90;-0.20;99588;;;;567323;251;24115;-80
2022/11/23 05:24:48;;;;;;;52.73;27.07;;;0.70;99.90;-0.30;99577;;;;566955;252;24106;-79
2022/11/23 05:27:16;;;;;;;53.90;27.30;;;0.70;99.90;-0.30;99566;;;;567318;251;25162;-79
2022/11/23 05:29:45;;;;;;;53.60;27.83;;;0.70;99.90;-0.30;99573;;;;567302;251;24124;-79
2022/11/23 05:32:13;;;;;;;50.83;28.23;;;0.70;99.90;-0.20;99578;;;;567256;251;24133;-80
2022/11/23 05:34:41;;;;;;;55.07;28.03;;;0.70;99.90;-0.20;99569;;;;567213;252;24125;-79
2022/11/23 05:37:09;;;;;;;53.20;27.60;;;0.70;99.90;-0.20;99571;;;;567227;252;24096;-79
2022/11/23 05:39:37;;;;;;;53.57;26.67;;;0.70;99.90;-0.20;99573;;;;567686;252;24147;-81
2022/11/23 05:42:05;;;;;;;55.53;27.97;;;0.70;99.90;-0.30;99580;;;;567524;252;24082;-82
2022/11/23 05:44:33;;;;;;;60.33;27.83;;;0.70;99.90;-0.30;99582;;;;567621;252;24151;-82
2022/11/23 05:47:01;;;;;;;54.97;26.63;;;0.60;99.90;-0.30;99574;;;;567780;252;24097;-83
2022/11/23 05:49:30;;;;;;;59.23;27.70;;;0.60;99.90;-0.30;99569;;;;567636;252;24120;-81
2022/11/23 05:51:57;;;;;;;60.80;27.77;;;0.60;99.90;-0.30;99574;;;;567590;252;24097;-81
2022/11/23 05:54:25;;;;;;;61.63;26.37;;;0.60;99.90;-0.30;99587;;;;567631;252;24133;-80
2022/11/23 05:56:53;;;;;;;57.00;29.50;;;0.60;99.90;-0.30;99577;;;;567237;252;24129;-80
2022/11/23 05:59:21;;;;;;;60.37;28.57;;;0.60;99.90;-0.30;99583;;;;567708;251;24095;-79
2022/11/23 06:01:50;;;;;;;64.27;29.60;;;0.60;99.90;-0.40;99588;;;;567531;251;24083;-80
2022/11/23 06:04:18;;;;;;;65.30;30.63;;;0.60;99.90;-0.40;99581;;;;567530;252;25103;-82
2022/11/23 06:06:46;;;;;;;65.63;32.67;;;0.60;99.90;-0.40;99576;;;;568069;251;24193;-80
2022/11/23 06:09:13;;;;;;;66.97;31.63;;;0.60;99.90;-0.40;99574;;;;568371;251;24178;-81
2022/11/23 06:11:43;;;;;;;65.40;33.10;;;0.60;99.90;-0.40;99574;;;;568441;251;24119;-84
2022/11/23 06:14:13;;;;;;;67.83;32.23;;;0.50;99.90;-0.40;99571;;;;568381;249;24135;-80
2022/11/23 06:16:38;;;;;;;68.50;31.83;;;0.60;99.90;-0.40;99576;;;;567566;251;24123;-80
2022/11/23 06:19:06;;;;;;;59.23;31.33;;;0.60;99.90;-0.30;99580;;;;568085;251;24134;-80
2022/11/23 06:21:34;;;;;;;78.45;39.58;;;0.70;99.90;-0.30;99579;;;;563408;251;35301;-81
2022/11/23 06:24:02;;;;;;;68.80;33.93;;;0.60;99.90;-0.30;99575;;;;568332;251;24113;-80
2022/11/23 06:26:30;;;;;;;70.37;33.50;;;0.70;99.90;-0.30;99595;;;;568012;251;24086;-80
2022/11/23 06:28:58;;;;;;;70.53;33.33;;;0.70;99.90;-0.30;99589;;;;567460;251;24098;-82
2022/11/23 06:31:27;;;;;;;75.83;35.43;;;0.70;99.90;-0.30;99588;;;;567484;251;24159;-83
2022/11/23 06:33:54;;;;;;;74.37;34.47;;;0.70;99.90;-0.30;99587;;;;567430;251;24104;-83
2022/11/23 06:36:22;;;;;;;74.30;34.83;;;0.70;99.90;-0.30;99595;;;;567441;251;24121;-82
2022/11/23 06:38:50;;;;;;;66.77;33.87;;;0.70;99.90;-0.30;99592;;;;567399;251;24097;-80
2022/11/23 06:41:19;;;;;;;70.63;32.10;;;0.70;99.90;-0.20;99596;;;;567366;251;25162;-79
2022/11/23 06:43:47;;;;;;;65.83;30.40;;;0.70;99.90;-0.20;99597;;;;567091;251;24134;-82
2022/11/23 06:46:15;;;;;;;75.67;36.17;;;0.70;99.90;-0.20;99599;;;;567227;252;24125;-82
2022/11/23 06:48:45;;;;;;;73.90;33.30;;;0.70;99.90;-0.20;99597;;;;567104;252;25498;-81
2022/11/23 06:51:13;;;;;;;70.83;34.57;;;0.70;99.90;-0.20;99597;;;;567189;253;24149;-82
2022/11/23 06:53:41;;;;;;;72.33;33.40;;;0.70;99.90;-0.20;99601;;;;567265;252;24276;-83
2022/11/23 06:56:10;;;;;;;77.00;34.43;;;0.70;99.90;-0.20;99603;;;;567372;252;24116;-80
2022/11/23 06:58:41;;;;;;;72.53;35.17;;;0.70;99.90;-0.20;99598;;;;567634;251;24093;-81
2022/11/23 07:01:06;;;;;;;71.23;32.93;;;0.70;99.90;-0.20;99608;;;;566819;252;24152;-83
2022/11/23 07:03:34;;;;;;;72.50;35.00;;;0.70;99.90;-0.20;99611;;;;567042;252;24144;-83
2022/11/23 07:06:07;;;;;;;76.73;34.57;;;0.70;99.90;-0.20;99616;;;;567247;252;24092;-83
2022/11/23 07:08:38;;;;;;;68.43;33.37;;;0.70;99.90;-0.20;99620;;;;567254;253;24103;-84
2022/11/23 07:11:05;;;;;;;70.53;34.40;;;0.80;99.90;-0.20;99613;;;;567096;253;24129;-81
2022/11/23 07:13:31;;;;;;;80.80;34.23;;;0.80;99.90;-0.20;99619;;;;567295;249;24078;-82
2022/11/23 07:15:59;;;;;;;76.10;34.60;;;0.80;99.90;-0.20;99612;;;;567282;252;24140;-81
2022/11/23 07:18:27;;;;;;;79.17;34.83;;;0.80;99.90;-0.20;99616;;;;567984;251;24132;-81
2022/11/23 07:20:55;;;;;;;77.30;35.70;;;0.80;99.90;-0.20;99620;;;;568230;251;24123;-83
2022/11/23 07:23:23;;;;;;;80.27;36.07;;;0.80;99.90;-0.10;99608;;;;567775;252;24141;-80
2022/11/23 07:25:50;;;;;;;71.67;33.80;;;0.80;99.90;-0.20;99611;;;;567764;251;24136;-80
2022/11/23 07:28:18;;;;;;;71.27;34.30;;;0.80;99.90;-0.10;99616;;;;567572;251;24105;-80
2022/11/23 07:30:46;;;;;;;73.37;35.10;;;0.80;99.90;-0.10;99612;;;;567841;251;24097;-80
2022/11/23 07:33:14;;;;;;;75.30;33.57;;;0.80;99.90;-0.10;99613;;;;567565;251;24089;-80
2022/11/23 07:35:43;;;;;;;65.73;30.77;;;0.90;99.90;-0.10;99620;;;;567506;251;24127;-80
2022/11/23 07:38:11;;;;;;;77.63;33.90;;;0.80;99.90;-0.10;99618;;;;567289;251;24120;-80
2022/11/23 07:40:38;;;;;;;65.90;33.40;;;0.80;99.90;-0.10;99625;;;;567335;251;24093;-82
2022/11/23 07:43:06;;;;;;;72.17;32.57;;;0.80;99.90;-0.10;99631;;;;567367;252;25205;-80
2022/11/23 07:45:38;;;;;;;67.03;32.33;;;0.90;99.90;-0.10;99614;;;;567437;252;24110;-84
2022/11/23 07:48:03;;;;;;;65.97;30.87;;;0.80;99.90;-0.10;99627;;;;567734;252;24121;-83
2022/11/23 07:50:31;;;;;;;73.27;33.03;;;0.90;99.90;-0.10;99621;;;;567635;252;24133;-82
2022/11/23 07:52:59;;;;;;;74.40;34.27;;;0.90;99.90;0.00;99626;;;;567898;251;24098;-80
2022/11/23 07:55:31;;;;;;;79.07;33.80;;;0.90;99.90;0.00;99623;;;;568069;251;24242;-80
2022/11/23 07:57:56;;;;;;;75.77;34.77;;;0.90;99.90;0.00;99631;;;;567319;252;25400;-83
2022/11/23 08:00:27;;;;;;;73.57;32.97;;;0.90;99.90;0.10;99627;;;;568048;251;25127;-83
2022/11/23 08:02:51;;;;;;;85.53;34.77;;;1.00;99.90;0.00;99629;;;;567156;252;24167;-81
2022/11/23 08:05:20;;;;;;;74.27;35.10;;;1.00;99.90;0.00;99625;;;;567807;251;24113;-81
2022/11/23 08:07:48;;;;;;;70.43;32.07;;;1.00;99.90;0.00;99623;;;;567566;253;24104;-81
2022/11/23 08:10:15;;;;;;;64.73;33.10;;;0.90;99.90;0.00;99625;;;;568291;251;24139;-80
2022/11/23 08:12:43;;;;;;;72.27;34.70;;;0.90;99.90;0.00;99634;;;;567858;249;24140;-81
2022/11/23 08:15:11;;;;;;;67.93;32.23;;;0.90;99.90;0.00;99640;;;;567914;251;24085;-80
2022/11/23 08:17:39;;;;;;;80.67;31.83;;;0.90;99.90;0.00;99634;;;;568043;251;24202;-82
2022/11/23 08:20:10;;;;;;;75.90;33.37;;;1.00;99.90;0.00;99638;;;;567848;251;24152;-82
2022/11/23 08:22:34;;;;;;;71.63;32.43;;;1.00;99.90;0.00;99638;;;;568039;252;24111;-82
2022/11/23 08:25:02;;;;;;;69.93;33.10;;;1.00;99.90;0.10;99634;;;;568093;251;24137;-83
2022/11/23 08:27:30;;;;;;;77.47;34.43;;;1.00;99.90;0.10;99626;;;;568223;251;24090;-84
2022/11/23 08:29:58;;;;;;;68.53;34.27;;;1.00;99.90;0.00;99636;;;;568524;251;24170;-81
2022/11/23 08:32:26;;;;;;;74.30;35.00;;;1.00;99.90;0.00;99642;;;;568416;251;24128;-82
2022/11/23 08:34:54;;;;;;;69.20;34.53;;;1.00;99.90;0.10;99640;;;;568407;251;25138;-79
2022/11/23 08:37:22;;;;;;;67.87;32.47;;;1.00;99.90;0.10;99641;;;;568126;251;24179;-81
2022/11/23 08:39:49;;;;;;;65.10;31.20;;;1.00;99.90;0.10;99644;;;;568182;251;24273;-81
2022/11/23 08:42:17;;;;;;;71.07;32.33;;;1.00;99.90;0.10;99636;;;;568109;251;24098;-83
2022/11/23 08:44:45;;;;;;;73.03;32.43;;;1.00;99.90;0.10;99639;;;;568874;251;24150;-81
2022/11/23 08:47:14;;;;;;;68.37;31.67;;;1.00;99.90;0.10;99633;;;;568201;251;24116;-82
2022/11/23 08:49:42;;;;;;;69.73;31.97;;;1.00;99.90;0.10;99637;;;;568684;251;24093;-83
2022/11/23 08:52:10;;;;;;;68.77;32.40;;;1.00;99.90;0.10;99633;;;;568388;251;24155;-81
2022/11/23 08:54:38;;;;;;;68.97;32.23;;;1.00;99.90;0.10;99632;;;;568563;251;24093;-82
2022/11/23 08:57:05;;;;;;;74.27;32.73;;;1.10;99.90;0.20;99631;;;;567849;251;24097;-82
2022/11/23 08:59:33;;;;;;;69.77;33.27;;;1.10;99.90;0.20;99636;;;;567835;251;24118;-83
2022/11/23 09:02:02;;;;;;;78.67;35.27;;;1.10;99.90;0.20;99632;;;;567908;251;24142;-82
2022/11/23 09:04:30;;;;;;;82.33;35.10;;;1.10;99.90;0.20;99625;;;;567480;251;24107;-83
2022/11/23 09:06:58;;;;;;;75.73;35.37;;;1.10;99.90;0.30;99638;;;;567649;251;24093;-80
2022/11/23 09:09:26;;;;;;;80.13;33.37;;;1.20;99.90;0.30;99630;;;;567236;251;24153;-80
2022/11/23 09:11:53;;;;;;;76.17;33.63;;;1.20;99.90;0.30;99642;;;;567775;251;24085;-80
2022/11/23 09:14:22;;;;;;;69.57;33.43;;;1.30;99.90;0.30;99643;;;;567443;249;24090;-82
2022/11/23 09:16:49;;;;;;;68.93;29.87;;;1.20;99.90;0.30;99636;;;;567568;252;24132;-81
2022/11/23 09:19:18;;;;;;;65.67;32.13;;;1.30;99.90;0.40;99640;;;;567431;251;24098;-81
2022/11/23 09:21:46;;;;;;;64.90;33.50;;;1.30;99.90;0.40;99641;;;;567591;251;24107;-83
2022/11/23 09:24:14;;;;;;;70.07;33.07;;;1.30;99.90;0.40;99642;;;;567362;251;24090;-82
2022/11/23 09:26:41;;;;;;;68.17;32.33;;;1.30;99.90;0.40;99634;;;;567764;251;24141;-82
2022/11/23 09:29:09;;;;;;;66.33;31.60;;;1.40;99.90;0.50;99628;;;;567365;251;24139;-81
2022/11/23 09:31:37;;;;;;;67.50;33.07;;;1.40;99.90;0.50;99630;;;;567736;251;24131;-80
2022/11/23 09:34:07;;;;;;;68.87;33.90;;;1.40;99.90;0.50;99630;;;;566979;251;24211;-82
2022/11/23 09:36:35;;;;;;;75.97;33.57;;;1.40;99.90;0.50;99632;;;;567547;251;24125;-80
2022/11/23 09:39:03;;;;;;;67.60;33.67;;;1.40;99.90;0.50;99637;;;;567170;251;24096;-83
2022/11/23 09:41:55;;;;;;;69.87;31.60;;;1.40;99.90;0.50;99636;;;;568420;251;24114;-80
2022/11/23 09:45:05;;;;;;;72.17;32.17;;;1.40;99.90;0.50;99643;;;;568236;252;24160;-81
2022/11/23 09:48:00;;;;;;;65.93;33.03;;;1.40;99.90;0.50;99638;;;;568129;251;24168;-82
2022/11/23 09:50:44;;;;;;;64.30;31.40;;;1.40;99.90;0.50;99645;;;;567748;251;24101;-81
2022/11/23 09:53:11;;;;;;;58.23;30.43;;;1.40;99.90;0.50;99648;;;;568018;251;24096;-80
2022/11/23 09:55:42;;;;;;;64.03;30.70;;;1.40;99.90;0.50;99643;;;;567442;252;24238;-82
2022/11/23 09:58:10;;;;;;;59.10;30.53;;;1.40;99.90;0.50;99648;;;;568072;251;24120;-82
2022/11/23 10:00:38;;;;;;;68.60;31.57;;;1.40;99.90;0.50;99649;;;;567278;252;24109;-83
2022/11/23 10:03:05;;;;;;;62.87;30.33;;;1.40;99.90;0.50;99647;;;;567640;252;24131;-80
2022/11/23 10:05:34;;;;;;;54.53;28.93;;;1.50;99.90;0.50;99638;;;;567377;251;24133;-81
2022/11/23 10:08:26;;;;;;;60.57;29.47;;;1.50;99.90;0.50;99642;;;;567873;252;24068;-81
2022/11/23 10:11:12;;;;;;;58.93;29.47;;;1.50;99.90;0.60;99641;;;;566659;252;24107;-82
2022/11/23 10:13:43;;;;;;;63.53;32.47;;;1.50;99.90;0.60;99632;;;;567801;249;24149;-80
2022/11/23 10:16:20;;;;;;;58.53;31.73;;;1.50;99.90;0.60;99633;;;;567765;251;24093;-80
2022/11/23 10:19:02;;;;;;;62.77;30.33;;;1.50;99.90;0.60;99639;;;;567243;252;24101;-82
2022/11/23 10:21:42;;;;;;;61.03;30.60;;;1.50;99.90;0.60;99632;;;;567516;251;24143;-81
2022/11/23 10:24:19;;;;;;;64.73;32.27;;;1.60;99.90;0.70;99636;;;;566932;252;24145;-81
2022/11/23 10:26:50;;;;;;;64.70;30.10;;;1.60;99.90;0.70;99622;;;;567624;252;24118;-79
2022/11/23 10:29:30;;;;;;;66.53;30.43;;;1.60;99.90;0.70;99623;;;;567180;251;24210;-81
2022/11/23 10:32:00;;;;;;;59.10;29.67;;;1.60;99.90;0.70;99619;;;;567333;252;24100;-78
2022/11/23 10:34:28;;;;;;;67.23;31.47;;;1.60;99.90;0.80;99621;;;;566930;252;24125;-80
2022/11/23 10:36:56;;;;;;;64.83;30.83;;;1.70;99.90;0.80;99618;;;;567338;252;24140;-78
2022/11/23 10:39:24;;;;;;;67.07;31.23;;;1.70;99.90;0.80;99617;;;;567190;251;24152;-79
2022/11/23 10:41:52;;;;;;;63.87;32.10;;;1.70;99.90;0.80;99608;;;;567544;252;24143;-79
2022/11/23 10:44:29;;;;;;;56.33;30.70;;;1.80;99.90;0.90;99625;;;;567422;251;24086;-79
2022/11/23 10:46:57;;;;;;;58.47;30.37;;;1.80;99.90;0.90;99625;;;;568001;251;24082;-79
2022/11/23 10:49:28;;;;;;;64.10;29.80;;;1.80;99.90;0.90;99619;;;;567370;252;24119;-78
2022/11/23 10:51:58;;;;;;;62.33;29.23;;;1.90;99.90;0.90;99619;;;;567214;252;24093;-78
2022/11/23 10:54:31;;;;;;;62.87;30.10;;;1.80;99.90;1.00;99613;;;;568940;251;24100;-78
2022/11/23 10:57:02;;;;;;;61.53;29.83;;;1.90;99.90;1.00;99622;;;;568556;251;24145;-78
2022/11/23 10:59:33;;;;;;;57.33;28.93;;;1.90;99.90;1.10;99621;;;;567586;252;24118;-79
2022/11/23 11:02:16;;;;;;;52.10;27.90;;;2.10;99.90;1.20;99612;;;;567926;251;24117;-78
2022/11/23 11:04:47;;;;;;;54.23;27.70;;;2.10;99.90;1.30;99617;;;;567698;251;24171;-79
2022/11/23 11:07:27;;;;;;;58.80;27.20;;;2.20;99.90;1.30;99609;;;;567524;252;24133;-79
2022/11/23 11:09:57;;;;;;;59.20;29.00;;;2.20;99.90;1.30;99602;;;;567974;251;24144;-78
2022/11/23 11:12:25;;;;;;;55.50;28.50;;;2.30;99.90;1.30;99600;;;;567515;249;24145;-77
2022/11/23 11:15:11;;;;;;;56.20;29.13;;;2.20;99.90;1.30;99596;;;;567812;251;24108;-78
2022/11/23 11:17:42;;;;;;;58.27;28.73;;;2.20;99.90;1.30;99597;;;;567818;251;24104;-79
2022/11/23 11:20:31;;;;;;;53.57;28.70;;;2.20;99.90;1.30;99601;;;;567018;252;24101;-78
2022/11/23 11:22:59;;;;;;;57.40;29.50;;;2.20;99.90;1.30;99600;;;;567342;252;24116;-79
2022/11/23 11:25:35;;;;;;;60.93;28.37;;;2.20;99.90;1.30;99593;;;;565606;252;24093;-78